Time;durP1;ratioP1;P1;durP2;ratioP2;P2;SDS_P1;SDS_P2;PMS_P1;PMS_P2;Temp;Humidity;BMP_temperature;BMP_pressure;BME280_temperature;BME280_humidity;BME280_pressure;Samples;Min_cycle;Max_cycle;Signal;HPM_P1;HPM_P2
2021/07/15 00:09:42;0.00;0.00;0.62;0.00;0.00;0.62;;;;;20.70;1.00;;;;;;2270373;61;1279;-86
2021/07/15 00:12:15;0.00;0.00;0.62;0.00;0.00;0.62;;;;;20.90;1.00;;;;;;2268765;61;1104;-86
2021/07/15 00:14:42;0.00;0.00;0.62;0.00;0.00;0.62;;;;;21.10;1.00;;;;;;2264703;61;1095;-86
2021/07/15 00:17:09;0.00;0.00;0.62;0.00;0.00;0.62;;;;;21.30;1.00;;;;;;2264620;61;1986;-87
2021/07/15 00:19:37;69976.00;0.23;121.72;0.00;0.00;0.62;;;;;21.20;1.00;;;;;;2264708;61;948;-86
2021/07/15 00:22:04;67528.00;0.23;117.49;0.00;0.00;0.62;;;;;21.20;1.00;;;;;;2264718;61;937;-86
2021/07/15 00:24:31;0.00;0.00;0.62;0.00;0.00;0.62;;;;;21.10;1.00;;;;;;2264659;61;1033;-86
2021/07/15 00:26:59;0.00;0.00;0.62;0.00;0.00;0.62;;;;;21.20;1.00;;;;;;2264656;61;1407;-86
2021/07/15 00:29:27;0.00;0.00;0.62;0.00;0.00;0.62;;;;;21.30;1.00;;;;;;2264643;61;1128;-87
2021/07/15 00:31:54;24176.00;0.08;42.50;0.00;0.00;0.62;;;;;21.60;1.00;;;;;;2264663;61;1261;-86
2021/07/15 00:34:21;0.00;0.00;0.62;0.00;0.00;0.62;;;;;21.60;1.00;;;;;;2264652;61;1128;-85
2021/07/15 00:36:48;0.00;0.00;0.62;0.00;0.00;0.62;;;;;21.60;1.00;;;;;;2264571;61;1999;-86
2021/07/15 00:39:15;0.00;0.00;0.62;0.00;0.00;0.62;;;;;21.60;1.00;;;;;;2264668;61;1079;-86
2021/07/15 00:41:42;23878.00;0.08;41.99;0.00;0.00;0.62;;;;;21.50;1.00;;;;;;2264579;61;1793;-87
2021/07/15 00:44:11;0.00;0.00;0.62;0.00;0.00;0.62;;;;;21.40;1.00;;;;;;2264567;61;1737;-86
2021/07/15 00:46:37;7054.00;0.02;12.84;0.00;0.00;0.62;;;;;21.40;1.00;;;;;;2264590;61;1293;-86
2021/07/15 00:49:04;3935.00;0.01;7.44;0.00;0.00;0.62;;;;;21.40;1.00;;;;;;2264633;61;1077;-86
2021/07/15 00:51:32;0.00;0.00;0.62;0.00;0.00;0.62;;;;;21.50;1.00;;;;;;2264592;61;1097;-87
2021/07/15 00:54:00;18911.00;0.06;33.38;0.00;0.00;0.62;;;;;21.40;1.00;;;;;;2264630;61;995;-86
2021/07/15 00:56:28;0.00;0.00;0.62;0.00;0.00;0.62;;;;;21.50;1.00;;;;;;2264511;61;1919;-86
2021/07/15 00:58:55;0.00;0.00;0.62;0.00;0.00;0.62;;;;;21.50;1.00;;;;;;2264586;61;1069;-88
2021/07/15 01:01:23;0.00;0.00;0.62;0.00;0.00;0.62;;;;;21.60;1.00;;;;;;2264601;61;956;-86
2021/07/15 01:03:51;149693.00;0.50;259.28;59383.00;0.20;103.41;;;;;21.40;1.00;;;;;;2264597;61;1072;-87
2021/07/15 01:06:18;12084.00;0.04;21.56;0.00;0.00;0.62;;;;;21.10;1.00;;;;;;2264548;61;1407;-86
2021/07/15 01:08:46;0.00;0.00;0.62;0.00;0.00;0.62;;;;;21.00;1.00;;;;;;2264504;61;1115;-87
2021/07/15 01:11:27;0.00;0.00;0.62;0.00;0.00;0.62;;;;;21.00;1.00;;;;;;2264569;61;1084;-88
2021/07/15 01:14:01;0.00;0.00;0.62;0.00;0.00;0.62;;;;;20.90;1.00;;;;;;2264559;61;1065;-87
2021/07/15 01:16:34;17747.00;0.06;31.37;0.00;0.00;0.62;;;;;21.10;1.00;;;;;;2264470;61;1986;-87
2021/07/15 01:19:47;0.00;0.00;0.62;0.00;0.00;0.62;;;;;21.30;1.00;;;;;;2264539;61;1126;-86
2021/07/15 01:22:18;0.00;0.00;0.62;0.00;0.00;0.62;;;;;21.20;1.00;;;;;;2264538;61;1183;-87
2021/07/15 01:25:25;0.00;0.00;0.62;0.00;0.00;0.62;;;;;21.10;1.00;;;;;;2264525;61;1077;-87
2021/07/15 01:28:06;0.00;0.00;0.62;0.00;0.00;0.62;;;;;20.90;1.00;;;;;;2264488;61;1494;-88
2021/07/15 01:30:38;0.00;0.00;0.62;0.00;0.00;0.62;;;;;21.00;1.00;;;;;;2264515;61;1123;-88
2021/07/15 01:33:15;0.00;0.00;0.62;0.00;0.00;0.62;;;;;21.30;1.00;;;;;;2264536;61;1125;-88
2021/07/15 01:35:46;0.00;0.00;0.62;0.00;0.00;0.62;;;;;21.40;1.00;;;;;;2264043;61;1127;-88
2021/07/15 01:38:15;70638.00;0.24;122.86;0.00;0.00;0.62;;;;;21.50;1.00;;;;;;2264340;61;2025;-88
2021/07/15 01:40:46;65726.00;0.22;114.37;0.00;0.00;0.62;;;;;21.20;1.00;;;;;;2264487;61;1062;-88
2021/07/15 01:43:17;0.00;0.00;0.62;0.00;0.00;0.62;;;;;21.20;1.00;;;;;;2264490;61;1081;-88
2021/07/15 01:45:46;4818.00;0.02;8.97;0.00;0.00;0.62;;;;;21.30;1.00;;;;;;2264502;61;1120;-88
2021/07/15 01:48:15;30481.00;0.10;53.42;0.00;0.00;0.62;;;;;21.30;1.00;;;;;;2264476;61;1345;-87
2021/07/15 01:50:42;34082.00;0.11;59.65;0.00;0.00;0.62;;;;;21.10;1.00;;;;;;2264405;61;1460;-88
2021/07/15 01:53:10;0.00;0.00;0.62;0.00;0.00;0.62;;;;;20.80;1.00;;;;;;2264088;61;1036;-86
2021/07/15 01:55:40;0.00;0.00;0.62;0.00;0.00;0.62;;;;;20.50;1.00;;;;;;2264449;61;1026;-87
2021/07/15 01:58:10;0.00;0.00;0.62;0.00;0.00;0.62;;;;;20.40;1.30;;;;;;2264387;61;1993;-87
2021/07/15 02:00:39;0.00;0.00;0.62;0.00;0.00;0.62;;;;;20.60;1.60;;;;;;2264433;61;1147;-87
2021/07/15 02:03:09;0.00;0.00;0.62;0.00;0.00;0.62;;;;;20.40;1.50;;;;;;2264445;61;866;-87
2021/07/15 02:05:37;28611.00;0.10;50.18;0.00;0.00;0.62;;;;;20.60;2.30;;;;;;2264419;61;1069;-86
2021/07/15 02:08:05;0.00;0.00;0.62;0.00;0.00;0.62;;;;;20.50;2.10;;;;;;2264362;61;1384;-87
2021/07/15 02:10:34;0.00;0.00;0.62;0.00;0.00;0.62;;;;;20.50;1.70;;;;;;2265097;61;1020;-86
2021/07/15 02:13:03;0.00;0.00;0.62;0.00;0.00;0.62;;;;;20.20;2.40;;;;;;2264977;61;1044;-86
2021/07/15 02:15:31;0.00;0.00;0.62;0.00;0.00;0.62;;;;;20.20;2.70;;;;;;2265000;61;1028;-86
2021/07/15 02:17:59;0.00;0.00;0.62;0.00;0.00;0.62;;;;;20.10;2.50;;;;;;2264926;61;2005;-86
2021/07/15 02:20:28;20537.00;0.07;36.20;0.00;0.00;0.62;;;;;20.10;2.60;;;;;;2265051;61;1123;-87
2021/07/15 02:22:56;0.00;0.00;0.62;0.00;0.00;0.62;;;;;20.00;2.20;;;;;;2265102;61;928;-86
2021/07/15 02:25:24;0.00;0.00;0.62;0.00;0.00;0.62;;;;;19.90;3.90;;;;;;2265068;61;1155;-87
2021/07/15 02:27:53;0.00;0.00;0.62;0.00;0.00;0.62;;;;;20.10;2.70;;;;;;2264991;61;1302;-86
2021/07/15 02:30:22;270500.00;0.90;467.20;62583.00;0.21;108.94;;;;;20.20;3.20;;;;;;2261295;61;1014;-86
2021/07/15 02:32:56;0.00;0.00;0.62;0.00;0.00;0.62;;;;;20.30;1.70;;;;;;2265071;61;916;-87
2021/07/15 02:35:27;0.00;0.00;0.62;0.00;0.00;0.62;;;;;20.40;1.30;;;;;;2265088;61;946;-87
2021/07/15 02:37:58;0.00;0.00;0.62;0.00;0.00;0.62;;;;;20.40;1.70;;;;;;2264919;61;1997;-88
2021/07/15 02:40:25;0.00;0.00;0.62;0.00;0.00;0.62;;;;;20.50;1.30;;;;;;2265036;61;1087;-87
2021/07/15 02:42:53;0.00;0.00;0.62;0.00;0.00;0.62;;;;;20.80;1.00;;;;;;2264978;61;1707;-87
2021/07/15 02:45:21;77701.00;0.26;135.07;0.00;0.00;0.62;;;;;20.90;1.00;;;;;;2265012;61;1087;-87
2021/07/15 02:47:49;0.00;0.00;0.62;0.00;0.00;0.62;;;;;20.80;1.00;;;;;;2264962;61;1293;-85
2021/07/15 02:50:20;67298.00;0.22;117.09;0.00;0.00;0.62;;;;;20.80;1.00;;;;;;2265008;61;1024;-85
2021/07/15 02:52:49;107699.00;0.36;186.86;41512.00;0.14;72.50;;;;;20.70;1.00;;;;;;2264947;61;1080;-86
2021/07/15 02:55:18;75357.00;0.25;131.02;6372.00;0.02;11.66;;;;;20.80;1.00;;;;;;2264826;61;1714;-86
2021/07/15 02:57:57;0.00;0.00;0.62;0.00;0.00;0.62;;;;;21.00;1.00;;;;;;2264881;61;1923;-88
2021/07/15 03:00:26;34569.00;0.12;60.49;0.00;0.00;0.62;;;;;21.00;1.00;;;;;;2264940;61;1510;-87
2021/07/15 03:03:01;0.00;0.00;0.62;0.00;0.00;0.62;;;;;21.00;1.00;;;;;;2264964;61;1075;-87
2021/07/15 03:05:35;82860.00;0.28;143.98;0.00;0.00;0.62;;;;;21.10;1.00;;;;;;2264918;61;1575;-85
2021/07/15 03:08:06;190893.00;0.64;330.25;56193.00;0.19;97.90;;;;;20.90;1.00;;;;;;2264843;61;1378;-84
2021/07/15 03:10:35;4891.00;0.02;9.10;0.00;0.00;0.62;;;;;20.70;1.00;;;;;;2264876;61;1026;-85
2021/07/15 03:13:08;0.00;0.00;0.62;0.00;0.00;0.62;;;;;20.60;1.00;;;;;;2264933;61;1142;-85
2021/07/15 03:15:37;142881.00;0.48;247.54;518.00;0.00;1.52;;;;;20.80;1.00;;;;;;2264902;61;1164;-85
2021/07/15 03:18:08;60724.00;0.20;105.73;0.00;0.00;0.62;;;;;21.00;1.00;;;;;;2264857;61;2005;-86
2021/07/15 03:20:38;222610.00;0.74;384.83;89570.00;0.30;155.57;;;;;21.10;1.00;;;;;;2264645;61;1125;-86
2021/07/15 03:23:12;0.00;0.00;0.62;0.00;0.00;0.62;;;;;21.00;1.00;;;;;;2264905;61;1004;-88
2021/07/15 03:25:46;27293.00;0.09;47.90;0.00;0.00;0.62;;;;;21.10;1.00;;;;;;2264920;61;1017;-87
2021/07/15 03:28:16;0.00;0.00;0.62;0.00;0.00;0.62;;;;;20.50;1.00;;;;;;2264853;61;1488;-87
2021/07/15 03:30:43;0.00;0.00;0.62;0.00;0.00;0.62;;;;;20.60;1.50;;;;;;2264858;61;1136;-87
2021/07/15 03:33:12;0.00;0.00;0.62;0.00;0.00;0.62;;;;;20.70;1.10;;;;;;2264859;61;1138;-87
2021/07/15 03:35:42;0.00;0.00;0.62;0.00;0.00;0.62;;;;;20.60;1.00;;;;;;2264884;61;1011;-88
2021/07/15 03:38:10;8620.00;0.03;15.56;0.00;0.00;0.62;;;;;20.80;1.00;;;;;;2264805;61;2005;-88
2021/07/15 03:40:38;4206.00;0.01;7.91;0.00;0.00;0.62;;;;;21.00;1.00;;;;;;2264143;61;1052;-88
2021/07/15 03:43:09;0.00;0.00;0.62;0.00;0.00;0.62;;;;;21.20;1.00;;;;;;2260311;61;944;-87
2021/07/15 03:45:38;0.00;0.00;0.62;0.00;0.00;0.62;;;;;21.20;1.00;;;;;;2248326;61;1673;-86
2021/07/15 03:48:06;282434.00;0.94;487.72;83442.00;0.28;144.98;;;;;21.10;1.00;;;;;;2248259;61;1408;-88
2021/07/15 03:50:34;0.00;0.00;0.62;0.00;0.00;0.62;;;;;21.00;1.00;;;;;;2248233;61;1073;-86
2021/07/15 03:53:04;0.00;0.00;0.62;0.00;0.00;0.62;;;;;21.10;1.20;;;;;;2248122;61;1766;-88
2021/07/15 03:55:35;0.00;0.00;0.62;0.00;0.00;0.62;;;;;21.00;1.00;;;;;;2245069;61;1108;-86
2021/07/15 03:58:07;0.00;0.00;0.62;0.00;0.00;0.62;;;;;21.10;1.00;;;;;;2244280;61;1997;-87
2021/07/15 04:00:37;0.00;0.00;0.62;0.00;0.00;0.62;;;;;21.20;1.00;;;;;;2243981;61;1115;-87
2021/07/15 04:03:07;0.00;0.00;0.62;0.00;0.00;0.62;;;;;21.30;1.00;;;;;;2246348;61;1024;-87
2021/07/15 04:05:39;0.00;0.00;0.62;0.00;0.00;0.62;;;;;21.40;1.00;;;;;;2252354;61;1028;-87
2021/07/15 04:08:08;0.00;0.00;0.62;0.00;0.00;0.62;;;;;21.50;1.00;;;;;;2252277;61;1500;-87
2021/07/15 04:10:38;78982.00;0.26;137.28;13346.00;0.04;23.75;;;;;21.70;1.00;;;;;;2252329;61;1076;-88
2021/07/15 04:13:08;9458.00;0.03;17.01;0.00;0.00;0.62;;;;;21.70;1.00;;;;;;2252333;61;1137;-88
2021/07/15 04:15:57;70599.00;0.24;122.80;0.00;0.00;0.62;;;;;21.50;1.00;;;;;;2255679;61;1143;-88
2021/07/15 04:18:28;9570.00;0.03;17.20;0.00;0.00;0.62;;;;;21.40;1.00;;;;;;2264687;61;1995;-87
2021/07/15 04:20:56;122572.00;0.41;212.52;0.00;0.00;0.62;;;;;21.30;1.00;;;;;;2264750;61;1032;-87
2021/07/15 04:23:25;67466.00;0.22;117.38;0.00;0.00;0.62;;;;;21.00;1.00;;;;;;2264601;61;989;-87
2021/07/15 04:25:53;0.00;0.00;0.62;0.00;0.00;0.62;;;;;20.90;1.30;;;;;;2264735;61;1021;-87
2021/07/15 04:28:23;72352.00;0.24;125.82;0.00;0.00;0.62;;;;;20.80;1.00;;;;;;2264677;61;1321;-88
2021/07/15 04:30:54;115922.00;0.39;201.05;49804.00;0.17;86.85;;;;;21.10;1.20;;;;;;2257692;61;1012;-86
2021/07/15 04:33:22;0.00;0.00;0.62;0.00;0.00;0.62;;;;;21.00;1.00;;;;;;2260903;61;1010;-87
2021/07/15 04:35:54;39795.00;0.13;69.53;0.00;0.00;0.62;;;;;21.00;1.00;;;;;;2264679;61;1054;-88
2021/07/15 04:38:23;15133.00;0.05;26.84;0.00;0.00;0.62;;;;;21.20;1.00;;;;;;2264012;61;1915;-88
2021/07/15 04:40:51;0.00;0.00;0.62;0.00;0.00;0.62;;;;;21.20;1.00;;;;;;2264639;61;1123;-88
2021/07/15 04:43:20;0.00;0.00;0.62;0.00;0.00;0.62;;;;;21.20;1.00;;;;;;2257653;61;943;-89
2021/07/15 04:45:49;0.00;0.00;0.62;0.00;0.00;0.62;;;;;21.40;1.00;;;;;;2264661;61;1013;-87
2021/07/15 04:48:18;7645.00;0.03;13.87;0.00;0.00;0.62;;;;;21.50;1.00;;;;;;2264592;61;1393;-88
2021/07/15 04:50:45;0.00;0.00;0.62;0.00;0.00;0.62;;;;;21.50;1.00;;;;;;2264603;61;1123;-87
2021/07/15 04:53:16;0.00;0.00;0.62;0.00;0.00;0.62;;;;;21.40;1.00;;;;;;2264642;61;969;-87
2021/07/15 04:55:44;0.00;0.00;0.62;0.00;0.00;0.62;;;;;21.60;1.00;;;;;;2264637;61;1044;-87
2021/07/15 04:58:12;104008.00;0.35;180.49;0.00;0.00;0.62;;;;;21.70;1.00;;;;;;2264490;61;2010;-88
2021/07/15 05:00:41;39002.00;0.13;68.16;0.00;0.00;0.62;;;;;21.90;1.00;;;;;;2264627;61;1045;-88
2021/07/15 05:03:28;1409.00;0.00;3.06;0.00;0.00;0.62;;;;;22.20;1.00;;;;;;2264563;61;1625;-87
2021/07/15 05:05:55;0.00;0.00;0.62;0.00;0.00;0.62;;;;;22.10;1.00;;;;;;2264554;61;1127;-88
2021/07/15 05:08:22;45014.00;0.15;78.56;0.00;0.00;0.62;;;;;22.20;1.00;;;;;;2264466;61;1394;-87
2021/07/15 05:10:49;132467.00;0.44;229.58;33354.00;0.11;58.39;;;;;22.20;1.00;;;;;;2264567;61;1069;-88
2021/07/15 05:13:16;27135.00;0.09;47.62;0.00;0.00;0.62;;;;;21.80;1.00;;;;;;2264475;61;1782;-87
2021/07/15 05:15:46;13271.00;0.04;23.62;0.00;0.00;0.62;;;;;21.70;1.00;;;;;;2264513;61;1115;-87
2021/07/15 05:18:13;0.00;0.00;0.62;0.00;0.00;0.62;;;;;21.80;1.00;;;;;;2264491;61;1989;-87
2021/07/15 05:20:40;0.00;0.00;0.62;0.00;0.00;0.62;;;;;21.80;1.00;;;;;;2264570;61;1164;-87
2021/07/15 05:23:07;0.00;0.00;0.62;0.00;0.00;0.62;;;;;22.00;1.00;;;;;;2264545;61;996;-88
2021/07/15 05:25:33;0.00;0.00;0.62;0.00;0.00;0.62;;;;;22.10;1.00;;;;;;2264517;61;985;-87
2021/07/15 05:28:00;118026.00;0.39;204.68;51871.00;0.17;90.42;;;;;22.30;1.00;;;;;;2264498;61;1296;-87
2021/07/15 05:30:27;27167.00;0.09;47.68;0.00;0.00;0.62;;;;;22.30;1.00;;;;;;2264523;61;1103;-88
2021/07/15 05:32:56;0.00;0.00;0.62;0.00;0.00;0.62;;;;;22.40;1.00;;;;;;2264461;61;1113;-88
2021/07/15 05:35:23;4225.00;0.01;7.94;0.00;0.00;0.62;;;;;22.40;1.00;;;;;;2264443;61;1200;-87
2021/07/15 05:37:50;85279.00;0.28;148.16;0.00;0.00;0.62;;;;;22.40;1.00;;;;;;2264385;61;1994;-88
2021/07/15 05:40:17;0.00;0.00;0.62;0.00;0.00;0.62;;;;;22.50;1.00;;;;;;2264459;61;1058;-88
2021/07/15 05:42:44;0.00;0.00;0.62;0.00;0.00;0.62;;;;;22.40;1.00;;;;;;2257317;61;1013;-87
2021/07/15 05:45:11;4910.00;0.02;9.13;0.00;0.00;0.62;;;;;22.10;1.00;;;;;;2264332;61;1072;-88
2021/07/15 05:47:38;1192.00;0.00;2.69;0.00;0.00;0.62;;;;;22.10;1.00;;;;;;2264385;61;1391;-88
2021/07/15 05:50:07;0.00;0.00;0.62;0.00;0.00;0.62;;;;;22.00;1.00;;;;;;2254137;61;1012;-88
2021/07/15 05:52:36;0.00;0.00;0.62;0.00;0.00;0.62;;;;;22.10;1.00;;;;;;2264452;61;1183;-88
2021/07/15 05:55:03;31004.00;0.10;54.32;0.00;0.00;0.62;;;;;22.30;1.00;;;;;;2264455;61;940;-87
2021/07/15 05:57:32;17078.00;0.06;30.21;0.00;0.00;0.62;;;;;22.50;1.00;;;;;;2264353;61;2005;-88
2021/07/15 05:59:59;0.00;0.00;0.62;0.00;0.00;0.62;;;;;22.60;1.00;;;;;;2264439;61;1103;-89
2021/07/15 06:02:26;0.00;0.00;0.62;0.00;0.00;0.62;;;;;22.30;1.00;;;;;;2257393;61;1029;-88
2021/07/15 06:04:53;0.00;0.00;0.62;0.00;0.00;0.62;;;;;22.20;1.00;;;;;;2264438;61;1052;-89
2021/07/15 11:08:08;173404.00;0.58;300.13;71216.00;0.24;123.86;;;;;24.80;1.00;;;;;;2543851;40;3807;31
2021/07/15 11:18:06;0.00;0.00;0.62;0.00;0.00;0.62;;;;;22.20;1.90;;;;;;2583449;55;1876;-88
2021/07/15 11:23:18;0.00;0.00;0.62;0.00;0.00;0.62;;;;;23.10;1.00;;;;;;2578353;55;397;-89
2021/07/15 11:28:23;20945.00;0.07;36.91;0.00;0.00;0.62;;;;;24.20;1.00;;;;;;2542560;55;3527;31
2021/07/15 11:33:37;4995.00;0.02;9.28;0.00;0.00;0.62;;;;;24.80;1.00;;;;;;2577174;55;398;-88
2021/07/15 12:58:28;0.00;0.00;0.62;0.00;0.00;0.62;;;;;24.00;1.00;;;;;;2581700;55;1920;-88
2021/07/15 13:01:02;78377.00;0.26;136.23;0.00;0.00;0.62;;;;;24.00;1.00;;;;;;2583996;55;993;-87
2021/07/15 13:03:29;0.00;0.00;0.62;0.00;0.00;0.62;;;;;24.00;1.00;;;;;;2581764;55;985;-89
2021/07/15 13:05:56;0.00;0.00;0.62;0.00;0.00;0.62;;;;;23.60;1.00;;;;;;2581695;55;1354;-88
2021/07/15 13:08:31;0.00;0.00;0.62;0.00;0.00;0.62;;;;;23.40;1.00;;;;;;2581603;55;1009;-88
2021/07/15 13:14:18;0.00;0.00;0.62;0.00;0.00;0.62;;;;;23.20;1.00;;;;;;2573146;55;896;-87
2021/07/15 13:16:49;68215.00;0.23;118.68;0.00;0.00;0.62;;;;;23.30;1.00;;;;;;2572922;55;1961;-88
2021/07/15 13:19:19;0.00;0.00;0.62;0.00;0.00;0.62;;;;;23.80;1.00;;;;;;2570595;56;1053;-87
2021/07/15 13:21:47;0.00;0.00;0.62;0.00;0.00;0.62;;;;;23.90;1.00;;;;;;2573144;55;1004;-88
2021/07/15 13:24:14;97157.00;0.32;168.66;30936.00;0.10;54.20;;;;;23.80;1.00;;;;;;2573095;55;938;-87
2021/07/15 13:26:47;0.00;0.00;0.62;0.00;0.00;0.62;;;;;23.80;1.00;;;;;;2570849;56;1300;-87
2021/07/15 13:29:15;0.00;0.00;0.62;0.00;0.00;0.62;;;;;23.40;1.00;;;;;;2570835;56;1109;-86
2021/07/15 13:31:43;0.00;0.00;0.62;0.00;0.00;0.62;;;;;23.10;1.00;;;;;;2570875;56;1066;-86
2021/07/15 13:34:11;0.00;0.00;0.62;0.00;0.00;0.62;;;;;22.90;1.00;;;;;;2573097;55;1062;-87
2021/07/15 13:36:53;0.00;0.00;0.62;0.00;0.00;0.62;;;;;22.80;1.00;;;;;;2570703;56;1961;-86
2021/07/15 13:39:38;0.00;0.00;0.62;0.00;0.00;0.62;;;;;22.50;1.00;;;;;;2572707;55;1569;-87
2021/07/15 13:42:05;0.00;0.00;0.62;0.00;0.00;0.62;;;;;22.40;1.00;;;;;;2570901;56;1109;-86
2021/07/15 13:44:34;23045.00;0.08;40.54;0.00;0.00;0.62;;;;;22.70;1.00;;;;;;2575035;55;1059;-87
2021/07/15 13:47:06;115108.00;0.38;199.64;48026.00;0.16;83.77;;;;;22.60;1.00;;;;;;2583837;55;1497;-86
2021/07/15 13:49:33;0.00;0.00;0.62;0.00;0.00;0.62;;;;;22.90;1.00;;;;;;2581325;55;1019;-88
2021/07/15 13:52:09;0.00;0.00;0.62;0.00;0.00;0.62;;;;;23.60;1.00;;;;;;2581357;55;1073;-88
2021/07/15 13:54:36;0.00;0.00;0.62;0.00;0.00;0.62;;;;;24.10;1.00;;;;;;2583762;55;1693;-87
2021/07/15 13:57:08;136645.00;0.46;236.79;0.00;0.00;0.62;;;;;24.20;1.00;;;;;;2583654;55;1902;-87
2021/07/15 13:59:38;0.00;0.00;0.62;0.00;0.00;0.62;;;;;24.20;1.00;;;;;;2581568;55;1112;-86
2021/07/15 14:02:10;14600.00;0.05;25.92;0.00;0.00;0.62;;;;;24.60;1.00;;;;;;2581590;55;1047;-87
2021/07/15 14:04:42;0.00;0.00;0.62;0.00;0.00;0.62;;;;;24.60;1.00;;;;;;2581667;55;1086;-87
2021/07/15 14:07:10;0.00;0.00;0.62;0.00;0.00;0.62;;;;;24.80;1.00;;;;;;2581577;55;1394;-87
2021/07/15 14:09:38;0.00;0.00;0.62;0.00;0.00;0.62;;;;;24.70;1.00;;;;;;2583886;55;960;-86
2021/07/15 14:12:09;0.00;0.00;0.62;0.00;0.00;0.62;;;;;24.80;1.00;;;;;;2581618;55;1146;-85
2021/07/15 14:14:46;0.00;0.00;0.62;0.00;0.00;0.62;;;;;24.90;1.00;;;;;;2583856;55;966;-86
2021/07/15 14:17:18;18700.00;0.06;33.02;0.00;0.00;0.62;;;;;25.10;1.00;;;;;;2574625;55;1947;-87
2021/07/15 14:19:45;172647.00;0.58;298.83;64506.00;0.22;112.27;;;;;25.30;1.00;;;;;;2583817;55;927;-87
2021/07/15 14:22:12;46480.00;0.15;81.10;0.00;0.00;0.62;;;;;25.60;1.00;;;;;;2581402;55;1201;-86
2021/07/15 14:24:40;0.00;0.00;0.62;0.00;0.00;0.62;;;;;25.90;1.00;;;;;;2581532;55;1035;-87
2021/07/15 14:27:08;0.00;0.00;0.62;0.00;0.00;0.62;;;;;26.10;1.00;;;;;;2583748;55;1470;-87
2021/07/15 14:29:37;0.00;0.00;0.62;0.00;0.00;0.62;;;;;26.20;1.00;;;;;;2581614;55;1120;-87
2021/07/15 14:32:05;0.00;0.00;0.62;0.00;0.00;0.62;;;;;26.40;1.00;;;;;;2581607;55;1007;-87
2021/07/15 14:34:32;0.00;0.00;0.62;0.00;0.00;0.62;;;;;26.30;1.00;;;;;;2570198;55;917;-87
2021/07/15 14:36:59;50841.00;0.17;88.64;0.00;0.00;0.62;;;;;26.40;1.00;;;;;;2583568;55;1890;-88
2021/07/15 14:39:26;32316.00;0.11;56.59;0.00;0.00;0.62;;;;;26.40;1.00;;;;;;2581492;55;1113;-86
2021/07/15 14:41:53;37835.00;0.13;66.14;0.00;0.00;0.62;;;;;25.80;1.00;;;;;;2583736;55;983;-87
2021/07/15 14:44:20;0.00;0.00;0.62;0.00;0.00;0.62;;;;;25.60;1.00;;;;;;2572833;55;984;-87
2021/07/15 14:46:48;0.00;0.00;0.62;0.00;0.00;0.62;;;;;25.60;1.00;;;;;;2570781;56;1389;-87
2021/07/15 14:49:15;16321.00;0.05;28.90;0.00;0.00;0.62;;;;;25.60;1.00;;;;;;2572968;55;1045;-87
2021/07/15 14:51:42;0.00;0.00;0.62;0.00;0.00;0.62;;;;;25.60;1.00;;;;;;2570787;56;1078;-87
2021/07/15 14:54:09;0.00;0.00;0.62;0.00;0.00;0.62;;;;;25.90;1.00;;;;;;2570806;56;1121;-87
2021/07/15 14:56:36;0.00;0.00;0.62;0.00;0.00;0.62;;;;;26.00;1.00;;;;;;2571905;55;1388;-87
2021/07/15 14:59:03;0.00;0.00;0.62;0.00;0.00;0.62;;;;;26.30;1.00;;;;;;2578080;55;1909;-88
2021/07/15 15:01:30;30640.00;0.10;53.69;0.00;0.00;0.62;;;;;26.20;1.00;;;;;;2578689;55;1018;-87
2021/07/15 15:03:59;0.00;0.00;0.62;0.00;0.00;0.62;;;;;26.20;1.00;;;;;;2581703;55;1100;-87
2021/07/15 15:06:26;0.00;0.00;0.62;0.00;0.00;0.62;;;;;26.60;1.00;;;;;;2581757;55;1367;-87
2021/07/15 15:08:52;118669.00;0.40;205.79;14560.00;0.05;25.85;;;;;26.70;1.00;;;;;;2581848;55;1116;-87
2021/07/15 15:11:19;0.00;0.00;0.62;0.00;0.00;0.62;;;;;26.90;1.00;;;;;;2581673;55;1628;-87
2021/07/15 15:13:46;89518.00;0.30;155.48;0.00;0.00;0.62;;;;;27.00;1.00;;;;;;2581836;55;1008;-88
2021/07/15 15:16:13;684.00;0.00;1.81;0.00;0.00;0.62;;;;;26.50;1.00;;;;;;2581766;55;1271;-88
2021/07/15 15:18:40;46616.00;0.16;81.33;0.00;0.00;0.62;;;;;26.50;1.00;;;;;;2581602;55;1954;-87
2021/07/15 15:21:08;0.00;0.00;0.62;0.00;0.00;0.62;;;;;26.60;1.00;;;;;;2584014;55;995;-87
2021/07/15 15:23:35;0.00;0.00;0.62;0.00;0.00;0.62;;;;;26.50;1.00;;;;;;2581701;55;1097;-87
2021/07/15 15:26:03;9058.00;0.03;16.32;0.00;0.00;0.62;;;;;26.50;1.00;;;;;;2579013;55;1371;-86
2021/07/15 15:28:31;371168.00;1.24;640.24;43735.00;0.15;76.35;;;;;26.80;1.00;;;;;;2581778;55;1104;-87
2021/07/15 15:30:58;57086.00;0.19;99.44;0.00;0.00;0.62;;;;;26.80;1.00;;;;;;2583823;55;1002;-87
2021/07/15 15:33:25;0.00;0.00;0.62;0.00;0.00;0.62;;;;;27.00;1.00;;;;;;2581760;55;1010;-87
2021/07/15 15:35:52;0.00;0.00;0.62;0.00;0.00;0.62;;;;;27.00;1.00;;;;;;2581707;55;1362;-87
2021/07/15 15:38:20;0.00;0.00;0.62;0.00;0.00;0.62;;;;;26.60;1.00;;;;;;2581710;55;1955;-87
2021/07/15 15:40:47;10856.00;0.04;19.43;0.00;0.00;0.62;;;;;26.50;1.00;;;;;;2574823;55;1005;-85
2021/07/15 15:43:14;0.00;0.00;0.62;0.00;0.00;0.62;;;;;26.70;1.00;;;;;;2581711;55;1184;-85
2021/07/15 15:45:41;0.00;0.00;0.62;0.00;0.00;0.62;;;;;26.80;1.00;;;;;;2581792;55;1401;-88
2021/07/15 15:48:08;0.00;0.00;0.62;0.00;0.00;0.62;;;;;27.00;1.00;;;;;;2583888;55;1105;-88
2021/07/15 15:50:37;0.00;0.00;0.62;0.00;0.00;0.62;;;;;27.10;1.00;;;;;;2579207;55;965;-88
2021/07/15 15:53:05;0.00;0.00;0.62;0.00;0.00;0.62;;;;;27.10;1.00;;;;;;2573049;55;955;-88
2021/07/15 15:55:34;0.00;0.00;0.62;0.00;0.00;0.62;;;;;26.90;1.00;;;;;;2560211;55;1361;-88
2021/07/15 15:58:03;0.00;0.00;0.62;0.00;0.00;0.62;;;;;26.70;1.00;;;;;;2562367;56;1902;-89
2021/07/15 16:00:30;0.00;0.00;0.62;0.00;0.00;0.62;;;;;26.50;1.00;;;;;;2562799;56;982;-88
2021/07/15 16:02:57;27123.00;0.09;47.60;0.00;0.00;0.62;;;;;26.50;1.00;;;;;;2550052;56;988;-88
2021/07/15 16:05:25;0.00;0.00;0.62;0.00;0.00;0.62;;;;;26.60;1.00;;;;;;2558482;56;1389;-87
2021/07/15 16:07:53;0.00;0.00;0.62;0.00;0.00;0.62;;;;;26.60;1.00;;;;;;2547511;56;1004;-88
2021/07/15 16:10:23;0.00;0.00;0.62;0.00;0.00;0.62;;;;;26.70;1.00;;;;;;2549865;56;956;-88
2021/07/15 16:12:54;0.00;0.00;0.62;0.00;0.00;0.62;;;;;26.70;1.00;;;;;;2554325;56;1129;-88
2021/07/15 16:15:22;0.00;0.00;0.62;0.00;0.00;0.62;;;;;26.30;1.00;;;;;;2558490;56;1425;-88
2021/07/15 16:17:50;70445.00;0.23;122.53;0.00;0.00;0.62;;;;;26.20;1.00;;;;;;2555999;55;1961;-88
2021/07/15 16:20:23;0.00;0.00;0.62;0.00;0.00;0.62;;;;;26.30;1.00;;;;;;2570929;56;1138;-88
2021/07/15 16:22:52;0.00;0.00;0.62;0.00;0.00;0.62;;;;;26.30;1.00;;;;;;2573248;55;1063;-88
2021/07/15 16:25:21;214917.00;0.72;371.60;34295.00;0.11;60.02;;;;;26.30;1.00;;;;;;2566744;55;1407;-89
2021/07/15 16:27:49;119051968.00;396.84;68352544.00;0.00;0.00;0.62;;;;;26.20;1.00;;;;;;2579066;55;934;-86
2021/07/15 16:30:18;0.00;0.00;0.62;0.00;0.00;0.62;;;;;26.20;1.00;;;;;;2578906;55;1133;-87
2021/07/15 16:32:46;0.00;0.00;0.62;0.00;0.00;0.62;;;;;26.20;1.00;;;;;;2573983;55;1044;-87
2021/07/15 16:35:14;0.00;0.00;0.62;0.00;0.00;0.62;;;;;26.10;1.00;;;;;;2578886;55;1363;-87
2021/07/15 16:37:44;0.00;0.00;0.62;0.00;0.00;0.62;;;;;26.00;1.00;;;;;;2567936;56;1914;-87
2021/07/15 16:40:14;160155.00;0.53;277.31;0.00;0.00;0.62;;;;;25.70;1.00;;;;;;2567984;56;1141;-87
2021/07/15 16:42:45;0.00;0.00;0.62;0.00;0.00;0.62;;;;;25.60;1.00;;;;;;2565767;56;989;-87
2021/07/15 16:45:12;0.00;0.00;0.62;0.00;0.00;0.62;;;;;25.60;1.00;;;;;;2563631;56;1374;-88
2021/07/15 16:47:41;0.00;0.00;0.62;0.00;0.00;0.62;;;;;25.70;1.00;;;;;;2563674;56;949;-88
2021/07/15 16:50:09;0.00;0.00;0.62;0.00;0.00;0.62;;;;;25.70;1.00;;;;;;2565736;56;969;-88
2021/07/15 16:52:37;63370.00;0.21;110.30;0.00;0.00;0.62;;;;;25.80;1.00;;;;;;2563639;56;920;-87
2021/07/15 16:55:06;0.00;0.00;0.62;0.00;0.00;0.62;;;;;25.90;1.00;;;;;;2570048;55;1287;-88
2021/07/15 16:57:33;0.00;0.00;0.62;0.00;0.00;0.62;;;;;26.10;1.00;;;;;;2574018;55;1930;-88
2021/07/15 17:00:00;0.00;0.00;0.62;0.00;0.00;0.62;;;;;26.10;1.00;;;;;;2576329;55;978;-88
2021/07/15 17:02:27;56825.00;0.19;98.99;0.00;0.00;0.62;;;;;26.10;1.00;;;;;;2574001;55;891;-87
2021/07/15 17:04:55;0.00;0.00;0.62;0.00;0.00;0.62;;;;;26.10;1.00;;;;;;2576901;55;1080;-87
2021/07/15 17:07:22;183774.00;0.61;317.99;0.00;0.00;0.62;;;;;26.10;1.00;;;;;;2578881;55;1332;-87
2021/07/15 17:09:49;0.00;0.00;0.62;0.00;0.00;0.62;;;;;26.20;1.00;;;;;;2569720;55;948;-88
2021/07/15 17:12:16;0.00;0.00;0.62;0.00;0.00;0.62;;;;;26.20;1.00;;;;;;2573005;55;937;-89
2021/07/15 17:14:42;138999.00;0.46;240.85;0.00;0.00;0.62;;;;;26.00;1.00;;;;;;2573213;55;988;-88
2021/07/15 17:17:09;54318.00;0.18;94.65;0.00;0.00;0.62;;;;;25.70;1.00;;;;;;2573047;55;1401;-88
2021/07/15 17:19:36;0.00;0.00;0.62;0.00;0.00;0.62;;;;;25.70;1.00;;;;;;2573013;55;1934;-88
2021/07/15 17:22:05;26963.00;0.09;47.33;0.00;0.00;0.62;;;;;25.60;1.00;;;;;;2568704;55;1069;-87
2021/07/15 17:24:32;209176.00;0.70;361.72;63596.00;0.21;110.69;;;;;25.70;1.00;;;;;;2573224;55;1004;-87
2021/07/15 17:26:59;0.00;0.00;0.62;0.00;0.00;0.62;;;;;25.70;1.00;;;;;;2568687;55;1412;-89
2021/07/15 17:29:26;168680.00;0.56;291.99;11308.00;0.04;20.22;;;;;25.70;1.00;;;;;;2573681;55;956;-88